Time;durP1;ratioP1;P1;durP2;ratioP2;P2;SDS_P1;SDS_P2;PMS_P1;PMS_P2;Temp;Humidity;BMP_temperature;BMP_pressure;BME280_temperature;BME280_humidity;BME280_pressure;Samples;Min_cycle;Max_cycle;Signal;HPM_P1;HPM_P2
2021/08/24 00:01:42;;;;;;;6.97;4.72;;;;;;;;;;5056907;28;20061;-59
2021/08/24 00:04:08;;;;;;;5.05;4.50;;;;;;;;;;5056469;28;20029;-58
2021/08/24 00:06:34;;;;;;;6.90;5.28;;;;;;;;;;5055388;28;20513;-59
2021/08/24 00:09:00;;;;;;;6.43;4.95;;;;;;;;;;5054848;28;20049;-59
2021/08/24 00:11:26;;;;;;;6.00;5.35;;;;;;;;;;5056409;28;20021;-59
2021/08/24 00:13:52;;;;;;;6.50;5.13;;;;;;;;;;5055589;28;20332;-59
2021/08/24 00:16:18;;;;;;;6.63;4.95;;;;;;;;;;5055191;28;20450;-59
2021/08/24 00:18:45;;;;;;;5.32;4.68;;;;;;;;;;5056232;28;20118;-59
2021/08/24 00:21:11;;;;;;;5.18;4.68;;;;;;;;;;5054893;28;20039;-59
2021/08/24 00:23:38;;;;;;;5.90;4.70;;;;;;;;;;5056593;28;20029;-58
2021/08/24 00:26:04;;;;;;;5.95;4.90;;;;;;;;;;5055810;28;20364;-58
2021/08/24 00:28:30;;;;;;;9.25;5.03;;;;;;;;;;5056616;28;20144;-58
2021/08/24 00:30:56;;;;;;;6.53;5.22;;;;;;;;;;5054682;28;20083;-58
2021/08/24 00:33:23;;;;;;;6.32;5.00;;;;;;;;;;5055942;28;20021;-59
2021/08/24 00:35:49;;;;;;;5.63;5.13;;;;;;;;;;5055934;28;20033;-59
2021/08/24 00:38:17;;;;;;;6.63;5.50;;;;;;;;;;5055892;28;20032;-59
2021/08/24 00:40:49;;;;;;;6.05;5.10;;;;;;;;;;5054429;28;20107;-59
2021/08/24 00:43:15;;;;;;;6.70;5.25;;;;;;;;;;5054838;28;20025;-58
2021/08/24 00:45:43;;;;;;;5.55;5.05;;;;;;;;;;5055687;28;20025;-58
2021/08/24 00:48:12;;;;;;;7.13;5.65;;;;;;;;;;5055599;28;20120;-58
2021/08/24 00:50:39;;;;;;;6.80;5.93;;;;;;;;;;5054292;28;20456;-58
2021/08/24 00:53:08;;;;;;;6.63;6.03;;;;;;;;;;5056213;28;20032;-58
2021/08/24 00:55:35;;;;;;;5.80;5.20;;;;;;;;;;5054199;28;20021;-58
2021/08/24 00:58:03;;;;;;;6.80;6.20;;;;;;;;;;5054228;28;20090;-58
2021/08/24 01:00:30;;;;;;;7.63;6.82;;;;;;;;;;5055670;28;20081;-58
2021/08/24 01:03:10;;;;;;;8.80;7.15;;;;;;;;;;5055752;28;20473;-58
2021/08/24 01:05:37;;;;;;;7.28;6.47;;;;;;;;;;5055451;28;20025;-58
2021/08/24 01:08:08;;;;;;;6.57;5.82;;;;;;;;;;5055637;28;20021;-58
2021/08/24 01:10:39;;;;;;;6.60;6.00;;;;;;;;;;5055109;28;20044;-58
2021/08/24 01:13:11;;;;;;;7.85;7.05;;;;;;;;;;5055809;28;20431;-58
2021/08/24 01:15:51;;;;;;;8.75;6.57;;;;;;;;;;5055575;28;20111;-58
2021/08/24 01:18:20;;;;;;;6.70;6.05;;;;;;;;;;5055705;28;20056;-58
2021/08/24 01:20:52;;;;;;;8.43;6.88;;;;;;;;;;5054967;28;20078;-58
2021/08/24 01:23:40;;;;;;;7.88;6.88;;;;;;;;;;5055130;28;20121;-58
2021/08/24 01:26:24;;;;;;;7.07;6.38;;;;;;;;;;5054618;28;20029;-58
2021/08/24 01:28:56;;;;;;;6.10;5.50;;;;;;;;;;5054350;28;20120;-58
2021/08/24 01:31:21;;;;;;;6.07;5.45;;;;;;;;;;5055321;28;20028;-58
2021/08/24 01:33:59;;;;;;;5.97;5.38;;;;;;;;;;5054912;28;20025;-58
2021/08/24 01:36:27;;;;;;;10.18;5.07;;;;;;;;;;5055128;28;20029;-58
2021/08/24 01:39:08;;;;;;;5.80;4.55;;;;;;;;;;5054950;28;20119;-58
2021/08/24 01:41:53;;;;;;;6.97;5.47;;;;;;;;;;5054694;28;20573;-58
2021/08/24 01:44:21;;;;;;;6.07;4.97;;;;;;;;;;5054848;28;20425;-58
2021/08/24 01:46:47;;;;;;;6.55;4.25;;;;;;;;;;5053279;28;20065;-58
2021/08/24 01:49:14;;;;;;;4.93;4.05;;;;;;;;;;5054769;28;20059;-58
2021/08/24 01:51:42;;;;;;;5.90;4.10;;;;;;;;;;5054432;28;20031;-58
2021/08/24 01:54:14;;;;;;;4.35;3.92;;;;;;;;;;5054136;28;20025;-58
2021/08/24 01:56:41;;;;;;;4.03;3.63;;;;;;;;;;5054708;28;20025;-58
2021/08/24 01:59:15;;;;;;;5.18;4.25;;;;;;;;;;5054337;28;20037;-58
2021/08/24 02:01:45;;;;;;;5.40;3.47;;;;;;;;;;5054677;28;20025;-58
2021/08/24 02:04:15;;;;;;;11.27;4.57;;;;;;;;;;5055079;28;20036;-58
2021/08/24 02:06:45;;;;;;;9.07;4.07;;;;;;;;;;5054863;28;20025;-58
2021/08/24 02:09:18;;;;;;;5.67;4.77;;;;;;;;;;5054267;28;20348;-58
2021/08/24 02:11:47;;;;;;;4.90;3.58;;;;;;;;;;5053681;28;20028;-58
2021/08/24 02:14:15;;;;;;;6.15;4.13;;;;;;;;;;5052694;28;20078;-58
2021/08/24 02:16:45;;;;;;;5.00;4.20;;;;;;;;;;5053766;28;20547;-58
2021/08/24 02:19:12;;;;;;;5.63;4.63;;;;;;;;;;5053888;28;20052;-58
2021/08/24 02:21:41;;;;;;;4.25;3.53;;;;;;;;;;5054552;28;20028;-58
2021/08/24 02:24:08;;;;;;;3.83;3.40;;;;;;;;;;5053098;28;20039;-58
2021/08/24 02:26:35;;;;;;;3.45;3.08;;;;;;;;;;5053577;28;20467;-58
2021/08/24 02:29:02;;;;;;;4.57;4.00;;;;;;;;;;5053420;28;20037;-58
2021/08/24 02:31:30;;;;;;;7.82;3.72;;;;;;;;;;5053552;28;20022;-58
2021/08/24 02:34:16;;;;;;;4.55;3.28;;;;;;;;;;5053040;28;20025;-58
2021/08/24 02:36:47;;;;;;;6.57;3.50;;;;;;;;;;5053738;28;20060;-58
2021/08/24 02:39:16;;;;;;;5.53;4.28;;;;;;;;;;5052914;28;20033;-58
2021/08/24 02:41:42;;;;;;;5.13;3.70;;;;;;;;;;5036568;28;20033;-58
2021/08/24 02:44:14;;;;;;;5.05;3.63;;;;;;;;;;5053628;28;20375;-58
2021/08/24 02:46:45;;;;;;;4.18;3.42;;;;;;;;;;5053937;28;20087;-57
2021/08/24 02:49:31;;;;;;;5.50;3.90;;;;;;;;;;5053232;28;20374;-58
2021/08/24 02:51:58;;;;;;;4.43;3.42;;;;;;;;;;5054166;28;20099;-58
2021/08/24 02:54:24;;;;;;;6.90;5.00;;;;;;;;;;5053503;28;20031;-58
2021/08/24 02:56:54;;;;;;;5.38;3.72;;;;;;;;;;5053626;28;20056;-58
2021/08/24 02:59:20;;;;;;;4.37;3.27;;;;;;;;;;5053074;28;20083;-58
2021/08/24 03:01:46;;;;;;;7.25;4.13;;;;;;;;;;5053534;28;20260;-58
2021/08/24 03:04:13;;;;;;;6.28;4.07;;;;;;;;;;5056063;28;20025;-58
2021/08/24 03:06:46;;;;;;;4.88;3.10;;;;;;;;;;5057228;28;20029;-58
2021/08/24 03:09:13;;;;;;;5.03;3.92;;;;;;;;;;5058110;28;20028;-58
2021/08/24 03:11:41;;;;;;;5.30;3.40;;;;;;;;;;5057356;28;20033;-58
2021/08/24 03:14:14;;;;;;;4.00;3.53;;;;;;;;;;5057466;28;20031;-58
2021/08/24 03:16:43;;;;;;;4.10;3.47;;;;;;;;;;5057738;28;20032;-58
2021/08/24 03:19:12;;;;;;;5.15;3.70;;;;;;;;;;5056121;28;20462;-58
2021/08/24 03:21:39;;;;;;;5.97;3.75;;;;;;;;;;5057724;28;20047;-58
2021/08/24 03:24:08;;;;;;;5.22;4.05;;;;;;;;;;5056934;28;20462;-59
2021/08/24 03:26:35;;;;;;;5.32;4.25;;;;;;;;;;5056288;28;20029;-59
2021/08/24 03:29:08;;;;;;;4.93;4.03;;;;;;;;;;5057281;28;20057;-59
2021/08/24 03:31:34;;;;;;;4.90;3.55;;;;;;;;;;5057759;28;20355;-59
2021/08/24 03:34:00;;;;;;;4.68;3.63;;;;;;;;;;5056876;28;20431;-59
2021/08/24 03:36:26;;;;;;;5.15;3.97;;;;;;;;;;5057599;28;20028;-58
2021/08/24 03:38:52;;;;;;;6.15;4.28;;;;;;;;;;5057029;28;20033;-59
2021/08/24 03:41:18;;;;;;;4.82;3.88;;;;;;;;;;5057065;28;20033;-59
2021/08/24 03:43:44;;;;;;;4.60;4.05;;;;;;;;;;5056384;28;20021;-59
2021/08/24 03:46:10;;;;;;;4.43;3.42;;;;;;;;;;5055690;28;20033;-59
2021/08/24 03:48:36;;;;;;;4.78;4.00;;;;;;;;;;5055663;28;20036;-59
2021/08/24 03:51:03;;;;;;;15.98;4.40;;;;;;;;;;5057662;28;20028;-58
2021/08/24 03:53:28;;;;;;;6.45;4.43;;;;;;;;;;5056426;28;20494;-59
2021/08/24 03:55:55;;;;;;;6.38;4.90;;;;;;;;;;5056502;28;20024;-59
2021/08/24 03:58:21;;;;;;;5.25;4.07;;;;;;;;;;5038848;28;20039;-59
2021/08/24 04:00:48;;;;;;;8.52;3.88;;;;;;;;;;5055672;28;20057;-58
2021/08/24 04:03:14;;;;;;;6.80;4.45;;;;;;;;;;5056780;28;20372;-59
2021/08/24 04:05:40;;;;;;;5.63;4.65;;;;;;;;;;5056617;28;20149;-58
2021/08/24 04:08:09;;;;;;;5.05;4.25;;;;;;;;;;5057100;28;20033;-58
2021/08/24 04:10:36;;;;;;;10.55;4.68;;;;;;;;;;5054865;28;20025;-58
2021/08/24 04:13:02;;;;;;;5.07;4.40;;;;;;;;;;5055328;28;20478;-58
2021/08/24 04:15:28;;;;;;;8.32;5.00;;;;;;;;;;5056553;28;20029;-58
2021/08/24 04:17:54;;;;;;;6.35;5.05;;;;;;;;;;5056292;28;20025;-59
2021/08/24 04:20:20;;;;;;;6.18;4.72;;;;;;;;;;5056515;28;20203;-59
2021/08/24 04:22:48;;;;;;;8.57;5.05;;;;;;;;;;5056258;28;20025;-59
2021/08/24 04:25:15;;;;;;;6.30;5.30;;;;;;;;;;5055780;28;20039;-59
2021/08/24 04:27:41;;;;;;;11.30;5.40;;;;;;;;;;5054877;28;20114;-59
2021/08/24 04:30:08;;;;;;;5.68;4.80;;;;;;;;;;5056103;28;20025;-59
2021/08/24 04:32:37;;;;;;;8.27;5.85;;;;;;;;;;5055681;28;20037;-59
2021/08/24 04:35:04;;;;;;;6.32;5.28;;;;;;;;;;5056006;28;20025;-59
2021/08/24 04:37:30;;;;;;;4.82;4.15;;;;;;;;;;5055584;28;20133;-59
2021/08/24 04:39:59;;;;;;;5.93;4.93;;;;;;;;;;5056033;28;20547;-59
2021/08/24 04:42:25;;;;;;;6.22;4.97;;;;;;;;;;5056486;28;20419;-59
2021/08/24 04:44:51;;;;;;;5.25;4.75;;;;;;;;;;5055475;28;20025;-59
2021/08/24 04:47:17;;;;;;;5.60;4.95;;;;;;;;;;5055101;28;20061;-59
2021/08/24 04:49:43;;;;;;;6.10;5.28;;;;;;;;;;5055740;28;20075;-59
2021/08/24 04:52:09;;;;;;;5.53;4.90;;;;;;;;;;5055079;28;20026;-59
2021/08/24 04:54:35;;;;;;;6.13;5.18;;;;;;;;;;5054314;28;20029;-59
2021/08/24 04:57:02;;;;;;;6.30;5.15;;;;;;;;;;5055899;28;20029;-59
2021/08/24 04:59:29;;;;;;;6.10;4.63;;;;;;;;;;5055481;28;20029;-59
2021/08/24 05:01:55;;;;;;;6.30;5.68;;;;;;;;;;5055630;28;20052;-59
2021/08/24 05:04:22;;;;;;;6.55;5.82;;;;;;;;;;5054963;28;20136;-59
2021/08/24 05:06:48;;;;;;;6.70;4.70;;;;;;;;;;5055487;28;20029;-60
2021/08/24 05:09:23;;;;;;;7.28;5.95;;;;;;;;;;5055457;28;20029;-60
2021/08/24 05:11:49;;;;;;;6.03;5.03;;;;;;;;;;5055934;28;20104;-60
2021/08/24 05:14:18;;;;;;;5.45;4.25;;;;;;;;;;5055568;28;20025;-60
2021/08/24 05:16:44;;;;;;;4.90;4.40;;;;;;;;;;5054913;28;20021;-60
2021/08/24 05:19:10;;;;;;;4.63;4.05;;;;;;;;;;5055208;28;20382;-58
2021/08/24 05:21:37;;;;;;;5.47;4.45;;;;;;;;;;5055777;28;20064;-59
2021/08/24 05:24:03;;;;;;;6.68;5.07;;;;;;;;;;5053754;28;20056;-58
2021/08/24 05:26:32;;;;;;;7.53;4.72;;;;;;;;;;5054565;28;20025;-58
2021/08/24 05:28:58;;;;;;;5.82;5.28;;;;;;;;;;5055586;28;20060;-58
2021/08/24 05:31:24;;;;;;;5.53;5.03;;;;;;;;;;5054934;28;20029;-58
2021/08/24 05:33:50;;;;;;;6.72;5.18;;;;;;;;;;5054069;28;20356;-59
2021/08/24 05:36:16;;;;;;;6.32;4.88;;;;;;;;;;5055425;28;20029;-59
2021/08/24 05:38:42;;;;;;;6.55;5.45;;;;;;;;;;5054344;28;20033;-58
2021/08/24 05:41:08;;;;;;;5.35;4.65;;;;;;;;;;5054686;28;20056;-58
2021/08/24 05:43:37;;;;;;;5.47;4.78;;;;;;;;;;5055106;28;20100;-58
2021/08/24 05:46:06;;;;;;;5.72;5.07;;;;;;;;;;5054618;28;20074;-58
2021/08/24 05:48:33;;;;;;;9.63;4.95;;;;;;;;;;5054556;28;20036;-59
2021/08/24 05:50:59;;;;;;;7.03;5.50;;;;;;;;;;5055180;28;20032;-59
2021/08/24 05:53:25;;;;;;;8.15;5.03;;;;;;;;;;5054625;28;20363;-58
2021/08/24 05:55:51;;;;;;;5.13;4.13;;;;;;;;;;5054500;28;20090;-59
2021/08/24 05:58:17;;;;;;;8.30;4.63;;;;;;;;;;5053146;28;20147;-59
2021/08/24 06:00:44;;;;;;;9.45;5.40;;;;;;;;;;5054696;28;20033;-58
2021/08/24 06:03:10;;;;;;;5.65;4.70;;;;;;;;;;5053763;28;20017;-59
2021/08/24 06:05:38;;;;;;;5.30;4.72;;;;;;;;;;5054262;28;20086;-58
2021/08/24 06:08:04;;;;;;;6.88;5.15;;;;;;;;;;5054468;28;20021;-59
2021/08/24 06:10:30;;;;;;;10.75;4.90;;;;;;;;;;5055002;28;20029;-58
2021/08/24 06:12:56;;;;;;;6.47;4.88;;;;;;;;;;5053243;28;20040;-59
2021/08/24 06:15:22;;;;;;;7.05;5.28;;;;;;;;;;5054661;28;20439;-58
2021/08/24 06:17:48;;;;;;;6.70;4.82;;;;;;;;;;5054395;28;20025;-58
2021/08/24 06:20:15;;;;;;;6.45;5.05;;;;;;;;;;5052329;28;20036;-58
2021/08/24 06:22:44;;;;;;;7.22;4.75;;;;;;;;;;5054089;28;20025;-58
2021/08/24 06:25:15;;;;;;;6.25;4.63;;;;;;;;;;5054138;28;20021;-58
2021/08/24 06:27:41;;;;;;;5.88;5.15;;;;;;;;;;5052579;28;20060;-59
2021/08/24 06:30:10;;;;;;;6.25;5.40;;;;;;;;;;5053684;28;20029;-59
2021/08/24 06:32:38;;;;;;;6.68;5.13;;;;;;;;;;5052833;28;20051;-58
2021/08/24 06:35:05;;;;;;;7.18;5.57;;;;;;;;;;5053736;28;20028;-59
2021/08/24 06:37:34;;;;;;;6.70;5.97;;;;;;;;;;5053775;28;20025;-58
2021/08/24 06:40:03;;;;;;;6.07;5.00;;;;;;;;;;5053646;28;20091;-58
2021/08/24 06:42:29;;;;;;;7.13;4.80;;;;;;;;;;5054653;28;20021;-58
2021/08/24 06:44:58;;;;;;;7.03;5.72;;;;;;;;;;5053691;28;20417;-58
2021/08/24 06:47:24;;;;;;;7.68;5.47;;;;;;;;;;5053389;28;20482;-59
2021/08/24 06:49:53;;;;;;;5.10;4.13;;;;;;;;;;5052435;28;20037;-59
2021/08/24 06:52:19;;;;;;;6.65;5.25;;;;;;;;;;5054213;28;20060;-58
2021/08/24 06:54:47;;;;;;;5.68;4.40;;;;;;;;;;5053170;28;20466;-58
2021/08/24 06:57:19;;;;;;;6.30;5.05;;;;;;;;;;5035657;28;20068;-60
2021/08/24 06:59:46;;;;;;;14.55;6.30;;;;;;;;;;5051847;28;20051;-60
2021/08/24 07:02:12;;;;;;;5.53;4.25;;;;;;;;;;5052022;28;20547;-60
2021/08/24 07:04:42;;;;;;;5.20;4.43;;;;;;;;;;5053049;28;20431;-60
2021/08/24 07:07:08;;;;;;;8.20;5.03;;;;;;;;;;5053384;28;20029;-59
2021/08/24 07:09:34;;;;;;;6.15;4.60;;;;;;;;;;5053761;28;20420;-59
2021/08/24 07:12:00;;;;;;;7.90;5.60;;;;;;;;;;5053720;28;20053;-59
2021/08/24 07:14:26;;;;;;;9.60;4.22;;;;;;;;;;5053353;28;20348;-59
2021/08/24 07:16:52;;;;;;;5.97;4.18;;;;;;;;;;5053314;28;20486;-59
2021/08/24 07:19:21;;;;;;;4.18;3.15;;;;;;;;;;5053198;28;20379;-59
2021/08/24 07:21:50;;;;;;;8.15;4.65;;;;;;;;;;5053240;28;20035;-57
2021/08/24 07:24:16;;;;;;;7.88;4.25;;;;;;;;;;5053108;28;20025;-56
2021/08/24 07:26:42;;;;;;;5.35;4.18;;;;;;;;;;5051759;28;20356;-57
2021/08/24 07:29:08;;;;;;;5.20;4.70;;;;;;;;;;5053586;28;20091;-57
2021/08/24 07:31:37;;;;;;;6.80;4.13;;;;;;;;;;5051943;28;20060;-56
2021/08/24 07:34:03;;;;;;;4.63;4.13;;;;;;;;;;5052979;28;20035;-56
2021/08/24 07:36:29;;;;;;;6.70;4.50;;;;;;;;;;5053528;28;20056;-56
2021/08/24 07:38:55;;;;;;;6.30;4.30;;;;;;;;;;5052963;28;20518;-57
2021/08/24 07:41:21;;;;;;;6.55;4.57;;;;;;;;;;5051617;28;20059;-57
2021/08/24 07:43:47;;;;;;;10.80;4.93;;;;;;;;;;5053517;28;20391;-58
2021/08/24 07:46:13;;;;;;;6.35;4.55;;;;;;;;;;5053215;28;20017;-58
2021/08/24 07:48:42;;;;;;;6.63;5.18;;;;;;;;;;5053057;28;20035;-58
2021/08/24 07:51:08;;;;;;;6.30;4.03;;;;;;;;;;5056509;28;20021;-57
2021/08/24 07:53:34;;;;;;;6.55;4.32;;;;;;;;;;5056758;28;20417;-59
2021/08/24 07:56:02;;;;;;;5.68;4.75;;;;;;;;;;5056203;28;20363;-58
2021/08/24 07:58:28;;;;;;;8.82;4.93;;;;;;;;;;5056709;28;20589;-59
2021/08/24 08:00:56;;;;;;;5.93;4.35;;;;;;;;;;5056559;28;20122;-59
2021/08/24 08:03:23;;;;;;;4.95;4.18;;;;;;;;;;5055654;28;20033;-58
2021/08/24 08:05:49;;;;;;;4.65;3.63;;;;;;;;;;5055918;28;20111;-57
2021/08/24 08:08:17;;;;;;;5.95;3.90;;;;;;;;;;5038198;28;20378;-58
2021/08/24 08:10:43;;;;;;;4.00;3.40;;;;;;;;;;5054967;28;20387;-58
2021/08/24 08:13:09;;;;;;;5.38;4.47;;;;;;;;;;5055451;28;20028;-57
2021/08/24 08:15:35;;;;;;;4.95;3.88;;;;;;;;;;5055853;28;20497;-57
2021/08/24 08:18:02;;;;;;;5.97;4.65;;;;;;;;;;5055432;28;20033;-57
2021/08/24 08:20:32;;;;;;;4.93;3.90;;;;;;;;;;5054878;28;20124;-57
2021/08/24 08:23:03;;;;;;;6.10;4.50;;;;;;;;;;5055821;28;20031;-59
2021/08/24 08:25:29;;;;;;;;;;;;;;;;;;5055579;28;20256;-58
2021/08/24 08:27:55;;;;;;;5.47;4.10;;;;;;;;;;5055465;28;19927;-58
2021/08/24 08:30:21;;;;;;;5.50;4.05;;;;;;;;;;5055767;28;20098;-57
2021/08/24 08:32:50;;;;;;;5.80;3.90;;;;;;;;;;5055500;28;20352;-58
2021/08/24 08:35:17;;;;;;;4.53;4.07;;;;;;;;;;5054494;28;20070;-58
2021/08/24 08:37:44;;;;;;;4.18;3.72;;;;;;;;;;5054990;28;20040;-58
2021/08/24 08:40:11;;;;;;;5.18;4.05;;;;;;;;;;5054401;28;20146;-58
2021/08/24 08:42:37;;;;;;;4.57;4.07;;;;;;;;;;5056096;28;20451;-57
2021/08/24 08:45:11;;;;;;;6.18;4.65;;;;;;;;;;5055760;28;20112;-58
2021/08/24 08:47:37;;;;;;;6.97;4.18;;;;;;;;;;5055763;28;20029;-59
2021/08/24 08:50:10;;;;;;;4.20;3.70;;;;;;;;;;5055697;28;20112;-58
2021/08/24 08:52:37;;;;;;;5.38;4.28;;;;;;;;;;5055962;28;20032;-58
2021/08/24 08:55:07;;;;;;;4.30;3.90;;;;;;;;;;5055559;28;20025;-58
2021/08/24 08:57:37;;;;;;;8.00;4.07;;;;;;;;;;5054042;28;20431;-58
2021/08/24 09:00:15;;;;;;;6.68;3.78;;;;;;;;;;5054997;28;20051;-58
2021/08/24 09:02:48;;;;;;;5.47;4.63;;;;;;;;;;5055314;28;20028;-58
2021/08/24 09:05:15;;;;;;;5.25;4.57;;;;;;;;;;5054769;28;20021;-58
2021/08/24 09:07:50;;;;;;;5.05;4.30;;;;;;;;;;5056019;28;20021;-58
2021/08/24 09:10:18;;;;;;;4.70;3.97;;;;;;;;;;5054421;28;20398;-57
2021/08/24 09:12:47;;;;;;;4.72;3.83;;;;;;;;;;5055781;28;20057;-58
2021/08/24 09:15:17;;;;;;;5.10;4.60;;;;;;;;;;5054582;28;20032;-58
2021/08/24 09:17:43;;;;;;;4.05;3.45;;;;;;;;;;5055018;28;20348;-59
2021/08/24 09:20:16;;;;;;;7.25;3.97;;;;;;;;;;5054495;28;20037;-58
2021/08/24 09:22:45;;;;;;;4.60;3.22;;;;;;;;;;5055861;28;20109;-58
2021/08/24 09:25:14;;;;;;;4.43;3.65;;;;;;;;;;5037075;28;20032;-58
2021/08/24 09:27:43;;;;;;;6.70;3.60;;;;;;;;;;5055117;28;20053;-59
2021/08/24 09:30:10;;;;;;;8.30;4.38;;;;;;;;;;5054956;28;20072;-58
2021/08/24 09:32:37;;;;;;;5.95;3.45;;;;;;;;;;5054716;28;20028;-57
2021/08/24 09:35:06;;;;;;;5.35;4.40;;;;;;;;;;5055052;28;20048;-58
2021/08/24 09:37:36;;;;;;;5.53;3.65;;;;;;;;;;5054892;28;20379;-58
2021/08/24 09:40:04;;;;;;;4.32;3.72;;;;;;;;;;5055063;28;20348;-58
2021/08/24 09:42:35;;;;;;;5.03;3.72;;;;;;;;;;5055263;28;20021;-58
2021/08/24 09:45:04;;;;;;;5.28;3.30;;;;;;;;;;5054677;28;20032;-58
2021/08/24 09:47:30;;;;;;;6.13;3.38;;;;;;;;;;5053141;28;20021;-58
2021/08/24 09:50:04;;;;;;;3.90;3.00;;;;;;;;;;5055101;28;20035;-59
2021/08/24 09:52:33;;;;;;;5.78;3.30;;;;;;;;;;5054941;28;20100;-58
2021/08/24 09:55:01;;;;;;;3.63;3.15;;;;;;;;;;5054469;28;20371;-58
2021/08/24 09:57:35;;;;;;;4.63;3.53;;;;;;;;;;5054482;28;20017;-58
2021/08/24 10:00:04;;;;;;;5.00;3.53;;;;;;;;;;5053137;28;20025;-58
2021/08/24 10:02:38;;;;;;;3.83;2.88;;;;;;;;;;5054584;28;20113;-59
2021/08/24 10:05:05;;;;;;;6.28;2.95;;;;;;;;;;5054550;28;20138;-58
2021/08/24 10:07:41;;;;;;;4.95;3.15;;;;;;;;;;5053605;28;20554;-58
2021/08/24 10:10:22;;;;;;;3.75;3.05;;;;;;;;;;5054480;28;20032;-58
2021/08/24 10:12:52;;;;;;;5.18;3.30;;;;;;;;;;5053774;28;20020;-58
2021/08/24 10:15:21;;;;;;;8.40;3.63;;;;;;;;;;5054039;28;20170;-58
2021/08/24 10:17:47;;;;;;;7.53;3.92;;;;;;;;;;5054779;28;20447;-58
2021/08/24 10:20:26;;;;;;;4.55;3.65;;;;;;;;;;5054475;28;20099;-59
2021/08/24 10:22:52;;;;;;;6.57;4.28;;;;;;;;;;5053686;28;20025;-58
2021/08/24 10:25:20;;;;;;;3.95;3.45;;;;;;;;;;5053545;28;20067;-58
2021/08/24 10:27:57;;;;;;;4.55;3.03;;;;;;;;;;5053607;28;20048;-58
2021/08/24 10:30:45;;;;;;;5.82;3.75;;;;;;;;;;5054121;28;20098;-58
2021/08/24 10:33:22;;;;;;;7.70;3.38;;;;;;;;;;5054121;28;20028;-58
2021/08/24 10:35:52;;;;;;;3.67;3.17;;;;;;;;;;5053628;28;20524;-58
2021/08/24 10:38:18;;;;;;;6.85;4.20;;;;;;;;;;5053710;28;20021;-58
2021/08/24 10:40:46;;;;;;;3.97;3.30;;;;;;;;;;5053608;28;20033;-58
2021/08/24 10:43:15;;;;;;;3.85;3.00;;;;;;;;;;5054359;28;20028;-58
2021/08/24 10:46:06;;;;;;;4.65;3.92;;;;;;;;;;5052974;28;20029;-58
2021/08/24 10:48:33;;;;;;;3.85;3.20;;;;;;;;;;5050829;28;20475;-57
2021/08/24 10:51:08;;;;;;;4.55;3.83;;;;;;;;;;5053674;28;20044;-58
2021/08/24 10:53:56;;;;;;;4.03;3.40;;;;;;;;;;5054148;28;20371;-58
2021/08/24 10:56:22;;;;;;;7.00;4.10;;;;;;;;;;5054054;28;20459;-58
2021/08/24 10:58:57;;;;;;;5.63;3.97;;;;;;;;;;5053329;28;20032;-58
2021/08/24 11:01:40;;;;;;;5.45;3.97;;;;;;;;;;5053469;28;20489;-58
2021/08/24 11:04:15;;;;;;;4.20;3.40;;;;;;;;;;5035459;28;20471;-58
2021/08/24 11:06:46;;;;;;;4.25;3.33;;;;;;;;;;5053454;28;20436;-59
2021/08/24 11:09:31;;;;;;;4.32;3.50;;;;;;;;;;5053807;28;20061;-58
2021/08/24 11:12:09;;;;;;;4.57;4.18;;;;;;;;;;5053318;28;20343;-58
2021/08/24 11:14:47;;;;;;;5.68;3.10;;;;;;;;;;5053292;28;20021;-58
2021/08/24 11:17:28;;;;;;;4.65;3.60;;;;;;;;;;5053727;28;20379;-58
2021/08/24 11:19:54;;;;;;;3.75;3.17;;;;;;;;;;5053307;28;20124;-58
2021/08/24 11:22:44;;;;;;;3.95;3.30;;;;;;;;;;5052959;28;20044;-58
2021/08/24 11:25:15;;;;;;;8.63;2.72;;;;;;;;;;5055904;28;20475;-58
2021/08/24 11:28:01;;;;;;;2.85;2.30;;;;;;;;;;5057224;28;20054;-58
2021/08/24 11:30:44;;;;;;;4.65;3.50;;;;;;;;;;5057473;28;20478;-58
2021/08/24 11:33:38;;;;;;;5.65;2.72;;;;;;;;;;5056033;28;20033;-59
2021/08/24 11:36:07;;;;;;;3.53;2.70;;;;;;;;;;5055989;28;20471;-58
2021/08/24 11:38:36;;;;;;;4.22;3.83;;;;;;;;;;5056718;28;20040;-58
2021/08/24 11:41:13;;;;;;;4.10;3.22;;;;;;;;;;5056479;28;20525;-58
2021/08/24 11:43:57;;;;;;;4.13;2.78;;;;;;;;;;5055780;28;20025;-59
2021/08/24 11:46:26;;;;;;;4.03;3.13;;;;;;;;;;5057234;28;20053;-58
2021/08/24 11:48:57;;;;;;;4.28;3.30;;;;;;;;;;5055521;28;20056;-58
2021/08/24 11:51:26;;;;;;;4.28;3.13;;;;;;;;;;5057117;28;20021;-59
2021/08/24 11:54:16;;;;;;;3.80;3.08;;;;;;;;;;5056715;28;20356;-59
2021/08/24 11:56:52;;;;;;;3.83;2.78;;;;;;;;;;5057626;28;20040;-59
2021/08/24 11:59:25;;;;;;;4.75;2.63;;;;;;;;;;5056744;28;20044;-59
2021/08/24 12:01:52;;;;;;;5.45;3.05;;;;;;;;;;5056955;28;20036;-58
2021/08/24 12:04:22;;;;;;;4.93;3.67;;;;;;;;;;5055082;28;20043;-58
2021/08/24 12:07:15;;;;;;;3.53;2.83;;;;;;;;;;5056364;28;20029;-58
2021/08/24 12:09:53;;;;;;;4.65;3.58;;;;;;;;;;5056311;28;20052;-58
2021/08/24 12:12:38;;;;;;;4.45;3.33;;;;;;;;;;5055825;28;20078;-59
2021/08/24 12:15:08;;;;;;;4.63;3.40;;;;;;;;;;5054900;28;20104;-58
2021/08/24 12:17:37;;;;;;;4.88;3.30;;;;;;;;;;5055870;28;20025;-58
2021/08/24 12:20:05;;;;;;;3.75;2.70;;;;;;;;;;5055755;28;20034;-58
2021/08/24 12:22:43;;;;;;;4.93;2.95;;;;;;;;;;5055657;28;20366;-59
2021/08/24 12:25:28;;;;;;;6.35;3.85;;;;;;;;;;5055582;28;20021;-59
2021/08/24 12:28:02;;;;;;;3.47;2.92;;;;;;;;;;5056093;28;20145;-58
2021/08/24 12:30:29;;;;;;;4.50;3.42;;;;;;;;;;5056497;28;20024;-59
2021/08/24 12:32:55;;;;;;;5.40;3.33;;;;;;;;;;5056243;28;20021;-59
2021/08/24 12:35:30;;;;;;;4.97;3.63;;;;;;;;;;5055313;28;20545;-58
2021/08/24 12:37:58;;;;;;;4.30;3.25;;;;;;;;;;5054837;28;20408;-60
2021/08/24 12:40:24;;;;;;;6.57;4.63;;;;;;;;;;5055944;28;20029;-58
2021/08/24 12:43:03;;;;;;;8.07;4.28;;;;;;;;;;5056083;28;20498;-59
2021/08/24 12:45:39;;;;;;;4.10;3.40;;;;;;;;;;5055914;28;20056;-59
2021/08/24 12:48:13;;;;;;;5.18;3.72;;;;;;;;;;5055681;28;20032;-59
2021/08/24 12:50:39;;;;;;;3.95;3.30;;;;;;;;;;5056117;28;20356;-59
2021/08/24 12:53:34;;;;;;;6.25;3.78;;;;;;;;;;5056118;28;20025;-59
2021/08/24 12:56:02;;;;;;;4.40;3.35;;;;;;;;;;5050290;28;20449;-59
2021/08/24 12:58:29;;;;;;;5.65;4.20;;;;;;;;;;5055615;28;20070;-59
2021/08/24 13:01:14;;;;;;;5.07;4.25;;;;;;;;;;5054087;28;20442;-59
2021/08/24 13:03:52;;;;;;;4.97;3.90;;;;;;;;;;5055962;28;20021;-59
2021/08/24 13:06:32;;;;;;;13.02;4.38;;;;;;;;;;5054407;28;20029;-59
2021/08/24 13:09:17;;;;;;;5.68;3.50;;;;;;;;;;5055307;28;20029;-59
2021/08/24 13:11:43;;;;;;;6.78;2.92;;;;;;;;;;5054369;28;20025;-59
2021/08/24 13:14:28;;;;;;;5.28;4.22;;;;;;;;;;5055139;28;20111;-59
2021/08/24 13:16:55;;;;;;;4.72;3.85;;;;;;;;;;5055032;28;20035;-59
2021/08/24 13:19:24;;;;;;;5.68;3.80;;;;;;;;;;5054977;28;20052;-59
2021/08/24 13:22:04;;;;;;;3.75;3.30;;;;;;;;;;5053992;28;20094;-57
2021/08/24 13:24:30;;;;;;;5.78;4.38;;;;;;;;;;5054869;28;20053;-57
2021/08/24 13:26:58;;;;;;;4.10;3.70;;;;;;;;;;5053361;28;20052;-57
2021/08/24 13:29:26;;;;;;;4.47;3.80;;;;;;;;;;5054408;28;20033;-57
2021/08/24 13:32:07;;;;;;;5.18;3.95;;;;;;;;;;5054607;28;20413;-57
2021/08/24 13:34:43;;;;;;;5.43;3.92;;;;;;;;;;5055121;28;20037;-57
2021/08/24 13:37:09;;;;;;;5.85;4.50;;;;;;;;;;5054576;28;20021;-57
2021/08/24 13:39:50;;;;;;;5.13;4.00;;;;;;;;;;5054789;28;20124;-57
2021/08/24 13:42:16;;;;;;;6.20;4.25;;;;;;;;;;5055207;28;20371;-57
2021/08/24 13:44:43;;;;;;;4.60;3.65;;;;;;;;;;5054708;28;20063;-57
2021/08/24 13:47:20;;;;;;;4.57;3.65;;;;;;;;;;5053983;28;20021;-57
2021/08/24 13:49:50;;;;;;;4.43;3.22;;;;;;;;;;5053385;28;20036;-57
2021/08/24 13:52:16;;;;;;;;;;;;;;;;;;5055554;28;20451;-57
2021/08/24 13:54:51;;;;;;;4.78;3.83;;;;;;;;;;5054552;28;19912;-57
2021/08/24 13:57:23;;;;;;;4.18;3.10;;;;;;;;;;5053778;28;20076;-57
2021/08/24 13:59:54;;;;;;;4.30;3.47;;;;;;;;;;5054202;28;20048;-57
2021/08/24 14:02:21;;;;;;;3.50;2.70;;;;;;;;;;5054678;28;20097;-58
2021/08/24 14:04:48;;;;;;;4.15;2.97;;;;;;;;;;5055180;28;20055;-57
2021/08/24 14:07:22;;;;;;;5.05;3.75;;;;;;;;;;5054419;28;20021;-57
2021/08/24 14:09:59;;;;;;;4.75;3.47;;;;;;;;;;5053613;28;20025;-57
2021/08/24 14:12:25;;;;;;;4.43;3.47;;;;;;;;;;5054696;28;20104;-57
2021/08/24 14:14:58;;;;;;;4.97;3.58;;;;;;;;;;5054215;28;20029;-57
2021/08/24 14:17:33;;;;;;;6.35;4.03;;;;;;;;;;5053218;28;20024;-57
2021/08/24 14:19:59;;;;;;;4.15;3.15;;;;;;;;;;5054254;28;20036;-57
2021/08/24 14:22:27;;;;;;;4.20;3.20;;;;;;;;;;5053987;28;20017;-57
2021/08/24 14:24:53;;;;;;;3.78;3.35;;;;;;;;;;5054826;28;20025;-57
2021/08/24 14:27:20;;;;;;;4.55;3.08;;;;;;;;;;5053644;28;20506;-57
2021/08/24 14:29:46;;;;;;;5.43;3.42;;;;;;;;;;5054786;28;20041;-57
2021/08/24 14:32:28;;;;;;;3.85;3.30;;;;;;;;;;5054033;28;20107;-57
2021/08/24 14:34:54;;;;;;;3.78;3.15;;;;;;;;;;5054520;28;20029;-57
2021/08/24 14:37:25;;;;;;;5.30;3.85;;;;;;;;;;5053905;28;20029;-58
2021/08/24 14:39:56;;;;;;;4.22;3.83;;;;;;;;;;5053726;28;20068;-57
2021/08/24 14:42:48;;;;;;;4.55;3.35;;;;;;;;;;5054117;28;20410;-57
2021/08/24 14:45:22;;;;;;;7.68;3.97;;;;;;;;;;5053484;28;20048;-57
2021/08/24 14:47:51;;;;;;;4.93;3.55;;;;;;;;;;5053759;28;20028;-57
2021/08/24 14:50:23;;;;;;;5.28;3.83;;;;;;;;;;5052455;28;20039;-57
2021/08/24 14:52:50;;;;;;;5.55;3.75;;;;;;;;;;5054057;28;20100;-57
2021/08/24 14:55:25;;;;;;;4.18;3.50;;;;;;;;;;5052450;28;20033;-57
2021/08/24 14:57:57;;;;;;;4.78;3.65;;;;;;;;;;5053592;28;20466;-57
2021/08/24 15:00:23;;;;;;;4.38;3.67;;;;;;;;;;5052671;28;20463;-57